Terminal Aerodrome Forecast
Issued by NWS Cleveland, OH

Home | Current Version | Previous Version | Text Only | Print | Product List | Glossary Off
Versions: 1 2 3 4 5 6 7 8 9 10 11 12 13 14 15 16 17 18

000
FTUS41 KCLE 182331
TAFERI
TAF
KERI 182331Z 1900/1924 01007KT P6SM VCSH SCT030 OVC100
     FM190200 05008KT P6SM VCSH OVC035
      TEMPO 1902/1904 3SM -RASN OVC020
     FM190400 04010KT 3SM -SN OVC012
      TEMPO 1904/1908 1 1/2SM -SN OVC008
     FM190800 36012G22KT 1SM -SN OVC005
     FM191300 34017G25KT 2SM -SHSN OVC010=

USA.gov is the U.S. government's official web portal to all federal, state and local government web resources and services.